Time;durP1;ratioP1;P1;durP2;ratioP2;P2;SDS_P1;SDS_P2;PMS_P1;PMS_P2;Temp;Humidity;BMP_temperature;BMP_pressure;BME280_temperature;BME280_humidity;BME280_pressure;Samples;Min_cycle;Max_cycle;Signal;HPM_P1;HPM_P2
2023/06/22 00:00:43;;;;;;;13.23;10.83;;;20.60;99.90;;;;;;5033867;28;20170;-69
2023/06/22 00:03:09;;;;;;;11.93;10.93;;;20.60;99.90;;;;;;5034079;28;20538;-69
2023/06/22 00:05:34;;;;;;;13.27;11.87;;;20.50;99.90;;;;;;5033629;28;20405;-69
2023/06/22 00:08:04;;;;;;;12.70;11.50;;;20.50;99.90;;;;;;5033433;28;20166;-69
2023/06/22 00:10:29;;;;;;;10.80;9.80;;;20.50;99.90;;;;;;5033797;28;20644;-74
2023/06/22 00:12:55;;;;;;;11.77;10.73;;;20.50;99.90;;;;;;5033623;28;20498;-69
2023/06/22 00:15:21;;;;;;;12.00;10.80;;;20.50;99.90;;;;;;5032083;28;20566;-69
2023/06/22 00:17:46;;;;;;;12.53;11.33;;;20.40;99.90;;;;;;5033440;28;20190;-70
2023/06/22 00:20:13;;;;;;;11.90;10.70;;;20.40;99.90;;;;;;5033404;28;20171;-72
2023/06/22 00:22:38;;;;;;;12.83;11.50;;;20.30;99.90;;;;;;5033248;28;20190;-68
2023/06/22 00:25:06;;;;;;;12.10;11.00;;;20.30;99.90;;;;;;5032934;28;20687;-73
2023/06/22 00:27:32;;;;;;;11.57;10.57;;;20.30;99.90;;;;;;5032871;28;20264;-69
2023/06/22 00:29:57;;;;;;;11.17;10.17;;;20.20;99.90;;;;;;5033054;28;20443;-67
2023/06/22 00:32:23;;;;;;;12.10;10.30;;;20.20;99.90;;;;;;5032993;28;20167;-67
2023/06/22 00:34:50;;;;;;;12.20;11.00;;;20.20;99.90;;;;;;5033235;28;20177;-69
2023/06/22 00:37:15;;;;;;;12.70;11.03;;;20.10;99.90;;;;;;5032939;28;20579;-68
2023/06/22 00:39:43;;;;;;;12.67;11.50;;;20.10;99.90;;;;;;5032905;28;20417;-68
2023/06/22 00:42:08;;;;;;;11.17;10.03;;;20.10;99.90;;;;;;5032974;28;20225;-68
2023/06/22 00:44:35;;;;;;;12.50;11.30;;;20.10;99.90;;;;;;5032766;28;20445;-67
2023/06/22 00:47:02;;;;;;;12.50;11.30;;;20.10;99.90;;;;;;5032710;28;20237;-70
2023/06/22 00:49:27;;;;;;;11.97;10.87;;;20.00;99.90;;;;;;5032859;28;20439;-68
2023/06/22 00:51:53;;;;;;;13.50;12.13;;;20.00;99.90;;;;;;5032650;28;20834;-69
2023/06/22 00:54:24;;;;;;;11.40;10.30;;;20.00;99.90;;;;;;5032730;28;20169;-68
2023/06/22 00:56:52;;;;;;;11.63;10.53;;;19.90;99.90;;;;;;5032598;28;20202;-70
2023/06/22 00:59:18;;;;;;;12.93;11.57;;;19.90;99.90;;;;;;5031601;28;20420;-69
2023/06/22 01:01:44;;;;;;;12.87;11.67;;;19.80;99.90;;;;;;5032609;28;20443;-70
2023/06/22 01:04:11;;;;;;;11.57;10.40;;;19.80;99.90;;;;;;5032945;28;20239;-69
2023/06/22 01:06:45;;;;;;;12.27;11.13;;;19.80;99.90;;;;;;5032611;28;20436;-68
2023/06/22 01:09:22;;;;;;;13.20;11.90;;;19.80;99.90;;;;;;5032554;28;20384;-69
2023/06/22 01:11:55;;;;;;;11.70;10.50;;;19.70;99.90;;;;;;5032191;28;20541;-73
2023/06/22 01:14:49;;;;;;;14.70;11.83;;;19.70;99.90;;;;;;5032419;28;20911;-69
2023/06/22 01:17:16;;;;;;;12.43;11.20;;;19.70;99.90;;;;;;5032187;28;20795;-68
2023/06/22 01:19:54;;;;;;;11.93;10.83;;;19.60;99.90;;;;;;5032071;28;20503;-70
2023/06/22 01:22:26;;;;;;;13.17;11.97;;;19.60;99.90;;;;;;5031852;28;20457;-71
2023/06/22 01:25:11;;;;;;;11.37;10.27;;;19.60;99.90;;;;;;5031880;28;20406;-68
2023/06/22 01:28:16;;;;;;;12.03;10.93;;;19.60;99.90;;;;;;5031727;28;20423;-68
2023/06/22 01:30:45;;;;;;;12.23;11.07;;;19.50;99.90;;;;;;5031723;28;20404;-68
2023/06/22 01:33:13;;;;;;;14.90;13.30;;;19.50;99.90;;;;;;5031876;28;20419;-70
2023/06/22 01:35:39;;;;;;;12.27;11.07;;;19.50;99.90;;;;;;5031835;28;20403;-69
2023/06/22 01:38:06;;;;;;;11.73;10.53;;;19.50;99.90;;;;;;5031529;28;20417;-68
2023/06/22 01:40:33;;;;;;;13.83;12.50;;;19.50;99.90;;;;;;5031730;28;20412;-68
2023/06/22 01:43:01;;;;;;;14.23;12.83;;;19.40;99.90;;;;;;5031770;28;20536;-69
2023/06/22 01:45:27;;;;;;;12.20;10.87;;;19.40;99.90;;;;;;5031550;28;20814;-72
2023/06/22 01:47:54;;;;;;;15.00;11.90;;;19.40;99.90;;;;;;5031437;28;20432;-69
2023/06/22 01:50:21;;;;;;;11.87;10.73;;;19.30;99.90;;;;;;5030234;28;20871;-67
2023/06/22 01:52:46;;;;;;;12.67;11.47;;;19.30;99.90;;;;;;5031191;28;20409;-69
2023/06/22 01:55:12;;;;;;;13.90;12.60;;;19.30;99.90;;;;;;5031537;28;20820;-67
2023/06/22 01:57:39;;;;;;;13.57;12.27;;;19.30;99.90;;;;;;5029766;28;20201;-68
2023/06/22 02:00:10;;;;;;;14.10;12.70;;;19.20;99.90;;;;;;5031216;28;20223;-67
2023/06/22 02:03:03;;;;;;;14.60;13.10;;;19.30;99.90;;;;;;5031343;28;20440;-70
2023/06/22 02:05:45;;;;;;;15.73;14.23;;;19.20;99.90;;;;;;5029586;28;20435;-70
2023/06/22 02:08:20;;;;;;;17.83;14.40;;;19.20;99.90;;;;;;5031199;28;20383;-69
2023/06/22 02:10:48;;;;;;;15.97;14.27;;;19.20;99.90;;;;;;5012896;28;20388;-67
2023/06/22 02:13:14;;;;;;;16.83;15.27;;;19.30;99.90;;;;;;5011303;28;20406;-69
2023/06/22 02:15:40;;;;;;;16.97;15.23;;;19.20;99.90;;;;;;5011227;28;20762;-69
2023/06/22 02:18:06;;;;;;;16.27;14.57;;;19.20;99.90;;;;;;5011229;28;20403;-69
2023/06/22 02:20:31;;;;;;;18.13;16.20;;;19.20;99.90;;;;;;5011176;28;20402;-73
2023/06/22 02:22:57;;;;;;;19.17;16.67;;;19.20;99.90;;;;;;5011055;28;20190;-68
2023/06/22 02:25:23;;;;;;;18.50;16.53;;;19.20;99.90;;;;;;5025593;28;20165;-67
2023/06/22 02:27:48;;;;;;;18.70;16.80;;;19.20;99.90;;;;;;5030572;28;20254;-68
2023/06/22 02:30:15;;;;;;;18.03;16.27;;;19.20;99.90;;;;;;5030485;28;20535;-70
2023/06/22 02:32:42;;;;;;;19.00;16.87;;;19.20;99.90;;;;;;5030402;28;20280;-67
2023/06/22 02:35:09;;;;;;;18.37;16.57;;;19.20;99.90;;;;;;5030499;28;20415;-67
2023/06/22 02:37:41;;;;;;;17.13;15.43;;;19.20;99.90;;;;;;5012960;28;20512;-70
2023/06/22 02:40:08;;;;;;;18.37;16.47;;;19.30;99.90;;;;;;5030575;28;20734;-69
2023/06/22 02:42:34;;;;;;;18.30;15.60;;;19.30;99.90;;;;;;5030557;28;20479;-72
2023/06/22 02:45:00;;;;;;;17.67;15.87;;;19.30;99.90;;;;;;5030392;28;20481;-68
2023/06/22 02:47:26;;;;;;;15.90;14.30;;;19.40;99.90;;;;;;5030435;28;20426;-67
2023/06/22 02:49:52;;;;;;;16.87;14.40;;;19.40;99.90;;;;;;5030166;28;20247;-67
2023/06/22 02:52:17;;;;;;;17.20;15.33;;;19.50;99.90;;;;;;5030771;28;20413;-68
2023/06/22 02:54:45;;;;;;;18.63;16.73;;;19.50;99.90;;;;;;5030658;28;20172;-69
2023/06/22 02:57:13;;;;;;;16.90;15.20;;;19.60;99.90;;;;;;5031250;28;20197;-68
2023/06/22 02:59:41;;;;;;;15.60;14.00;;;19.60;99.90;;;;;;5030594;28;20416;-73
2023/06/22 03:02:08;;;;;;;18.40;14.57;;;19.60;99.90;;;;;;5030657;28;20449;-68
2023/06/22 03:04:35;;;;;;;15.10;13.70;;;19.60;99.90;;;;;;5030460;28;20483;-69
2023/06/22 03:07:01;;;;;;;18.00;16.37;;;19.60;99.90;;;;;;5030571;28;20795;-69
2023/06/22 03:09:27;;;;;;;16.00;14.60;;;19.70;99.90;;;;;;5031140;28;20404;-69
2023/06/22 03:11:54;;;;;;;15.80;14.30;;;19.70;99.90;;;;;;5030372;28;20855;-72
2023/06/22 03:14:19;;;;;;;18.27;16.47;;;19.60;99.90;;;;;;5030430;28;20906;-71
2023/06/22 03:16:45;;;;;;;16.47;14.77;;;19.60;99.90;;;;;;5030459;28;20436;-68
2023/06/22 03:19:10;;;;;;;17.13;15.40;;;19.70;99.90;;;;;;5030458;28;20271;-69
2023/06/22 03:21:41;;;;;;;20.27;15.13;;;19.70;99.90;;;;;;5030318;28;20288;-69
2023/06/22 03:24:07;;;;;;;17.80;15.93;;;19.70;99.90;;;;;;5033799;28;20167;-69
2023/06/22 03:26:34;;;;;;;14.83;13.27;;;19.80;99.90;;;;;;5034282;28;20433;-69
2023/06/22 03:28:59;;;;;;;15.50;13.90;;;19.80;99.90;;;;;;5033913;28;20474;-71
2023/06/22 03:31:25;;;;;;;15.33;13.97;;;19.80;99.90;;;;;;5033982;28;20769;-68
2023/06/22 03:33:51;;;;;;;13.53;12.17;;;19.80;99.90;;;;;;5033757;28;20192;-68
2023/06/22 03:36:20;;;;;;;15.20;13.73;;;19.80;99.90;;;;;;5048998;28;20208;-69
2023/06/22 03:38:46;;;;;;;15.67;14.07;;;19.80;99.90;;;;;;5033944;28;20255;-69
2023/06/22 03:41:12;;;;;;;14.17;12.77;;;19.90;99.90;;;;;;5033827;28;20534;-71
2023/06/22 03:43:38;;;;;;;13.13;11.77;;;19.90;99.90;;;;;;5033705;28;20411;-70
2023/06/22 03:46:03;;;;;;;13.87;12.47;;;19.90;99.90;;;;;;5033618;28;20682;-68
2023/06/22 03:48:29;;;;;;;13.37;11.87;;;20.00;99.90;;;;;;5033665;28;20168;-68
2023/06/22 03:50:55;;;;;;;13.87;12.50;;;20.00;99.90;;;;;;5033538;28;20170;-68
2023/06/22 03:53:20;;;;;;;14.43;12.90;;;19.90;99.90;;;;;;5033613;28;20173;-73
2023/06/22 03:55:53;;;;;;;18.20;13.50;;;19.90;99.90;;;;;;5033734;28;20282;-68
2023/06/22 03:58:19;;;;;;;17.80;14.47;;;20.00;99.90;;;;;;5033724;28;20171;-70
2023/06/22 04:00:50;;;;;;;17.30;12.93;;;20.00;99.90;;;;;;5033360;28;20922;-68
2023/06/22 04:03:15;;;;;;;13.90;12.20;;;20.00;99.90;;;;;;5034196;28;20856;-69
2023/06/22 04:05:41;;;;;;;13.30;11.60;;;20.10;99.90;;;;;;5033439;28;20412;-69
2023/06/22 04:08:07;;;;;;;11.37;10.30;;;20.10;99.90;;;;;;5033413;28;20175;-69
2023/06/22 04:10:33;;;;;;;12.10;11.00;;;20.20;99.90;;;;;;5033367;28;20405;-70
2023/06/22 04:13:00;;;;;;;11.43;10.30;;;20.30;99.90;;;;;;5033567;28;20408;-73
2023/06/22 04:15:26;;;;;;;11.13;9.50;;;20.50;99.90;;;;;;5033359;28;20288;-69
2023/06/22 04:17:51;;;;;;;9.77;8.87;;;21.00;99.90;;;;;;5033628;28;20513;-70
2023/06/22 04:20:17;;;;;;;8.00;7.30;;;21.70;99.90;;;;;;5033510;28;20172;-74
2023/06/22 04:22:42;;;;;;;10.40;8.07;;;22.20;99.90;;;;;;5033390;28;20204;-69
2023/06/22 04:25:08;;;;;;;9.30;8.23;;;22.80;99.90;;;;;;5033564;28;20176;-69
2023/06/22 04:27:40;;;;;;;7.40;6.73;;;23.20;99.90;;;;;;5033304;28;20272;-69
2023/06/22 04:30:08;;;;;;;9.07;7.07;;;23.50;99.90;;;;;;5033546;28;20317;-70
2023/06/22 04:32:37;;;;;;;7.67;6.87;;;23.50;99.90;;;;;;5032938;28;20417;-70
2023/06/22 04:35:04;;;;;;;9.27;8.43;;;23.80;99.90;;;;;;5032617;28;20462;-69
2023/06/22 04:37:31;;;;;;;7.37;6.30;;;24.00;99.90;;;;;;5055004;22;20483;-70
2023/06/22 04:39:56;;;;;;;7.97;6.40;;;24.20;99.90;;;;;;5033248;28;20448;-69
2023/06/22 04:42:22;;;;;;;7.80;7.00;;;24.20;99.90;;;;;;5033135;28;20558;-69
2023/06/22 04:44:48;;;;;;;7.03;6.07;;;24.00;99.90;;;;;;5033144;28;20725;-69
2023/06/22 04:47:13;;;;;;;7.03;6.33;;;24.10;99.90;;;;;;5033202;28;20693;-69
2023/06/22 04:49:40;;;;;;;7.40;6.60;;;24.00;99.90;;;;;;5032164;28;20207;-69
2023/06/22 04:52:07;;;;;;;6.97;6.43;;;24.00;99.90;;;;;;5033333;28;20196;-69
2023/06/22 04:54:35;;;;;;;6.83;6.20;;;24.10;99.90;;;;;;5033039;28;20425;-69
2023/06/22 04:57:09;;;;;;;7.37;6.17;;;24.10;99.90;;;;;;5026987;28;20835;-69
2023/06/22 04:59:35;;;;;;;5.20;4.70;;;24.20;99.90;;;;;;5033497;28;20459;-69
2023/06/22 05:02:02;;;;;;;5.63;5.03;;;24.40;99.90;;;;;;5033029;28;20469;-69
2023/06/22 05:04:35;;;;;;;7.50;4.13;;;24.50;99.90;;;;;;5032857;28;20466;-69
2023/06/22 05:07:02;;;;;;;6.07;5.50;;;24.50;99.90;;;;;;5025520;28;20426;-69
2023/06/22 05:09:28;;;;;;;6.80;4.07;;;24.70;99.90;;;;;;5032896;28;20432;-69
2023/06/22 05:11:54;;;;;;;4.20;3.80;;;24.60;99.90;;;;;;5032948;28;20512;-69
2023/06/22 05:14:20;;;;;;;5.13;4.67;;;24.60;99.90;;;;;;5033637;28;20850;-69
2023/06/22 05:16:46;;;;;;;5.77;3.40;;;24.60;99.90;;;;;;5033313;28;20561;-69
2023/06/22 05:19:12;;;;;;;6.10;4.27;;;24.40;99.90;;;;;;5033209;28;20744;-69
2023/06/22 05:21:38;;;;;;;8.43;4.00;;;24.40;99.90;;;;;;5032905;28;20457;-69
2023/06/22 05:24:04;;;;;;;5.90;5.10;;;24.40;99.90;;;;;;5032888;28;20414;-69
2023/06/22 05:26:32;;;;;;;4.47;4.07;;;24.00;99.90;;;;;;5033262;28;20946;-69
2023/06/22 05:28:58;;;;;;;4.47;4.03;;;23.80;99.90;;;;;;5033093;28;20408;-68
2023/06/22 05:31:24;;;;;;;6.73;4.90;;;23.60;99.90;;;;;;5032711;28;20924;-69
2023/06/22 05:33:52;;;;;;;4.73;4.33;;;23.40;99.90;;;;;;5032917;28;20541;-69
2023/06/22 05:36:19;;;;;;;9.70;4.43;;;23.40;99.90;;;;;;5032419;28;20176;-69
2023/06/22 05:38:45;;;;;;;5.03;4.53;;;23.30;99.90;;;;;;5032546;28;20454;-69
2023/06/22 05:41:11;;;;;;;7.17;4.30;;;23.20;99.90;;;;;;5032695;28;20457;-69
2023/06/22 05:43:37;;;;;;;6.47;4.23;;;23.20;99.90;;;;;;5032576;28;20414;-69
2023/06/22 05:46:04;;;;;;;10.10;5.80;;;23.20;99.90;;;;;;5032144;28;20493;-70
2023/06/22 05:48:30;;;;;;;5.60;3.50;;;23.10;99.90;;;;;;5032218;28;20222;-69
2023/06/22 05:50:55;;;;;;;6.00;4.07;;;23.00;99.90;;;;;;5032353;28;20407;-69
2023/06/22 05:53:21;;;;;;;10.77;4.30;;;23.00;99.90;;;;;;5032169;28;20512;-69
2023/06/22 05:55:47;;;;;;;8.60;4.50;;;23.00;99.90;;;;;;5032327;28;20690;-69
2023/06/22 05:58:13;;;;;;;6.03;3.97;;;23.60;99.90;;;;;;5032687;28;20244;-69
2023/06/22 06:00:39;;;;;;;4.67;4.23;;;24.00;99.90;;;;;;5032267;28;20177;-69
2023/06/22 06:03:05;;;;;;;5.90;4.63;;;24.20;99.90;;;;;;5032560;28;20457;-69
2023/06/22 06:05:32;;;;;;;5.33;4.17;;;24.50;99.90;;;;;;5031934;28;20570;-69
2023/06/22 06:07:58;;;;;;;4.90;4.37;;;24.70;99.90;;;;;;5031867;28;20429;-69
2023/06/22 06:10:24;;;;;;;5.80;4.20;;;24.80;99.90;;;;;;5031963;28;20424;-69
2023/06/22 06:12:50;;;;;;;6.73;4.20;;;24.50;99.90;;;;;;5031839;28;20416;-69
2023/06/22 06:15:16;;;;;;;4.43;4.03;;;24.70;99.90;;;;;;5031944;28;20422;-67
2023/06/22 06:17:52;;;;;;;5.93;3.90;;;24.70;99.90;;;;;;5031620;28;20207;-68
2023/06/22 06:20:19;;;;;;;4.43;3.90;;;24.80;99.90;;;;;;5031873;28;20308;-68
2023/06/22 06:22:45;;;;;;;3.40;3.10;;;25.20;99.90;;;;;;5031568;28;20454;-68
2023/06/22 06:25:15;;;;;;;4.83;3.67;;;25.40;99.90;;;;;;5031644;28;20496;-68
2023/06/22 06:27:42;;;;;;;4.20;3.80;;;26.00;99.90;;;;;;5031550;28;20190;-68
2023/06/22 06:30:09;;;;;;;4.87;4.07;;;26.20;99.90;;;;;;5031725;28;20467;-68
2023/06/22 06:32:34;;;;;;;4.37;3.97;;;26.50;99.90;;;;;;5031435;28;20428;-68
2023/06/22 06:35:00;;;;;;;4.00;3.70;;;26.50;99.90;;;;;;5026808;28;20500;-68
2023/06/22 06:37:25;;;;;;;6.03;3.20;;;26.70;99.90;;;;;;5031107;28;20207;-67
2023/06/22 06:39:51;;;;;;;3.80;3.40;;;27.00;99.90;;;;;;5031186;28;20179;-68
2023/06/22 06:42:16;;;;;;;4.13;3.67;;;27.30;99.90;;;;;;5031172;28;20241;-68
2023/06/22 06:44:42;;;;;;;4.73;3.90;;;27.50;99.90;;;;;;5031177;28;20163;-67
2023/06/22 06:47:07;;;;;;;3.90;3.60;;;27.20;99.90;;;;;;5031007;28;20672;-68
2023/06/22 06:49:34;;;;;;;4.27;3.70;;;27.70;99.90;;;;;;5031171;28;20175;-68
2023/06/22 06:51:59;;;;;;;3.53;3.23;;;27.70;99.90;;;;;;5030132;28;20641;-68
2023/06/22 06:54:25;;;;;;;3.50;3.03;;;27.80;99.90;;;;;;5031192;28;20414;-68
2023/06/22 06:56:50;;;;;;;3.27;3.07;;;28.10;99.90;;;;;;5031139;28;20202;-69
2023/06/22 06:59:16;;;;;;;3.70;3.17;;;28.30;99.90;;;;;;5035189;28;20177;-69
2023/06/22 07:01:44;;;;;;;3.50;3.20;;;28.90;99.90;;;;;;5035741;28;20199;-68
2023/06/22 07:04:09;;;;;;;2.93;2.73;;;29.20;99.90;;;;;;5035305;28;20519;-69
2023/06/22 07:06:35;;;;;;;2.93;2.63;;;29.10;99.90;;;;;;5035201;28;20474;-68
2023/06/22 07:09:00;;;;;;;2.77;2.43;;;29.10;99.90;;;;;;5035208;28;20171;-69
2023/06/22 07:11:26;;;;;;;2.83;2.50;;;29.60;99.90;;;;;;5033943;28;20262;-69
2023/06/22 07:13:52;;;;;;;4.27;3.10;;;29.90;99.90;;;;;;5035069;28;20175;-69
2023/06/22 07:16:18;;;;;;;3.17;2.80;;;30.00;99.90;;;;;;5035057;28;20818;-68
2023/06/22 07:18:44;;;;;;;6.20;3.10;;;29.70;99.90;;;;;;5034754;28;20195;-71
2023/06/22 07:21:09;;;;;;;3.13;2.83;;;29.60;99.90;;;;;;5034847;28;20202;-70
2023/06/22 07:23:35;;;;;;;3.20;2.77;;;29.50;99.90;;;;;;5035037;28;20622;-69
2023/06/22 07:26:06;;;;;;;3.23;3.03;;;30.30;99.90;;;;;;5034849;28;20175;-69
2023/06/22 07:28:36;;;;;;;3.53;3.23;;;30.50;99.90;;;;;;5034942;28;20199;-68
2023/06/22 07:31:02;;;;;;;3.20;2.73;;;29.90;99.90;;;;;;5031471;28;20483;-68
2023/06/22 07:33:28;;;;;;;3.20;2.90;;;30.10;99.90;;;;;;5034789;28;20449;-69
2023/06/22 07:35:54;;;;;;;4.67;2.53;;;30.50;99.10;;;;;;5034581;28;20967;-69
2023/06/22 07:38:19;;;;;;;6.20;2.77;;;30.40;98.30;;;;;;5034410;28;20242;-68
2023/06/22 07:40:45;;;;;;;3.20;2.67;;;29.80;99.20;;;;;;5034523;28;20653;-69
2023/06/22 07:43:11;;;;;;;2.77;2.50;;;29.70;98.40;;;;;;5034503;28;20199;-69
2023/06/22 07:45:39;;;;;;;5.90;3.20;;;29.70;98.70;;;;;;5034351;28;20421;-68
2023/06/22 07:48:05;;;;;;;3.03;2.73;;;29.30;99.10;;;;;;5034334;28;20256;-68
2023/06/22 07:50:31;;;;;;;2.73;2.17;;;29.40;98.70;;;;;;5034244;28;20414;-68
2023/06/22 07:52:56;;;;;;;2.73;2.53;;;30.30;96.50;;;;;;5034268;28;20689;-68
2023/06/22 07:55:22;;;;;;;2.97;2.60;;;30.40;95.50;;;;;;5034009;28;20638;-68
2023/06/22 07:57:51;;;;;;;3.80;3.00;;;30.20;95.60;;;;;;5034078;28;20207;-68
2023/06/22 08:00:17;;;;;;;3.43;3.13;;;30.50;96.10;;;;;;5034010;28;20188;-67
2023/06/22 08:02:45;;;;;;;3.90;2.60;;;30.00;95.60;;;;;;5034018;28;20461;-68
2023/06/22 08:05:11;;;;;;;4.30;2.97;;;29.70;96.90;;;;;;5034198;28;20282;-68
2023/06/22 08:07:38;;;;;;;4.30;2.67;;;29.80;96.40;;;;;;5033917;28;20465;-67
2023/06/22 08:10:05;;;;;;;3.00;2.40;;;29.70;97.30;;;;;;5033719;28;20417;-68
2023/06/22 08:12:30;;;;;;;4.73;3.10;;;29.20;97.90;;;;;;5034022;28;20415;-67
2023/06/22 08:14:56;;;;;;;2.97;2.67;;;29.70;96.60;;;;;;5033764;28;20452;-67
2023/06/22 08:17:23;;;;;;;3.37;2.87;;;29.50;96.40;;;;;;5033593;28;20210;-68
2023/06/22 08:19:49;;;;;;;3.20;2.90;;;29.40;96.10;;;;;;5033842;28;20464;-69
2023/06/22 08:22:15;;;;;;;3.93;2.50;;;28.80;96.90;;;;;;5033802;28;20449;-68
2023/06/22 08:24:41;;;;;;;4.37;2.60;;;28.80;97.70;;;;;;5032204;28;20178;-69
2023/06/22 08:27:13;;;;;;;3.10;2.90;;;28.70;96.60;;;;;;5033703;28;20537;-68
2023/06/22 08:29:39;;;;;;;2.60;2.40;;;28.00;96.60;;;;;;5032101;28;20180;-70
2023/06/22 08:32:05;;;;;;;3.50;2.83;;;27.80;97.60;;;;;;5033689;28;20485;-68
2023/06/22 08:34:30;;;;;;;3.53;3.23;;;28.00;98.20;;;;;;5033457;28;20433;-67
2023/06/22 08:36:56;;;;;;;2.80;2.60;;;27.80;98.70;;;;;;5033248;28;20449;-68
2023/06/22 08:39:22;;;;;;;4.00;2.50;;;27.80;98.40;;;;;;5031869;28;20167;-68
2023/06/22 08:41:48;;;;;;;3.47;3.17;;;28.20;98.10;;;;;;5033359;28;20191;-68
2023/06/22 08:44:14;;;;;;;3.97;2.67;;;27.90;98.60;;;;;;5033111;28;20637;-68
2023/06/22 08:46:40;;;;;;;2.70;2.50;;;27.80;97.80;;;;;;5033315;28;20410;-68
2023/06/22 08:49:06;;;;;;;3.13;2.77;;;27.90;97.60;;;;;;5033374;28;20413;-68
2023/06/22 08:51:32;;;;;;;2.70;2.47;;;27.70;96.70;;;;;;5033366;28;20468;-68
2023/06/22 08:53:58;;;;;;;5.27;2.83;;;27.50;98.50;;;;;;5033158;28;20409;-68
2023/06/22 08:56:24;;;;;;;2.80;2.60;;;27.80;98.40;;;;;;5033353;28;20417;-68
2023/06/22 08:58:49;;;;;;;4.07;3.10;;;27.60;99.40;;;;;;5032797;28;20178;-69
2023/06/22 09:01:18;;;;;;;3.90;2.63;;;27.80;98.90;;;;;;5033016;28;20603;-69
2023/06/22 09:03:43;;;;;;;2.57;2.37;;;27.70;98.90;;;;;;5032989;28;20250;-68
2023/06/22 09:06:09;;;;;;;4.20;3.30;;;27.80;98.00;;;;;;5032936;28;20496;-68
2023/06/22 09:08:36;;;;;;;3.80;3.33;;;27.70;98.10;;;;;;5032697;28;20218;-69
2023/06/22 09:11:01;;;;;;;3.17;2.87;;;28.00;98.90;;;;;;5032630;28;20277;-69
2023/06/22 09:13:30;;;;;;;3.30;3.00;;;28.00;98.50;;;;;;5032729;28;20510;-68
2023/06/22 09:15:56;;;;;;;6.37;3.40;;;28.00;97.70;;;;;;5032697;28;20586;-67
2023/06/22 09:18:21;;;;;;;3.40;3.00;;;28.30;97.90;;;;;;5032796;28;20430;-70
2023/06/22 09:20:47;;;;;;;2.97;2.70;;;28.40;97.50;;;;;;5032101;28;20242;-69
2023/06/22 09:23:13;;;;;;;3.17;2.87;;;28.80;95.80;;;;;;5032782;28;20222;-69
2023/06/22 09:25:40;;;;;;;3.40;3.10;;;28.80;96.30;;;;;;5032493;28;20175;-69
2023/06/22 09:28:05;;;;;;;6.03;2.90;;;28.80;96.40;;;;;;5032741;28;20678;-69
2023/06/22 09:30:31;;;;;;;4.20;3.00;;;28.50;96.60;;;;;;5032831;28;20509;-69
2023/06/22 09:32:56;;;;;;;4.03;3.00;;;28.80;95.30;;;;;;5032733;28;20180;-69
2023/06/22 09:35:22;;;;;;;3.87;2.83;;;28.50;95.00;;;;;;5032510;28;20183;-69
2023/06/22 09:37:47;;;;;;;4.53;3.13;;;28.70;94.10;;;;;;5032321;28;20211;-69
2023/06/22 09:40:16;;;;;;;2.40;2.20;;;28.60;94.30;;;;;;5032890;28;20194;-69
2023/06/22 09:42:42;;;;;;;2.60;2.40;;;28.40;94.40;;;;;;5032214;28;20265;-69
2023/06/22 09:45:08;;;;;;;2.80;2.60;;;28.50;95.00;;;;;;5032104;28;20410;-69
2023/06/22 09:47:33;;;;;;;4.40;2.90;;;28.70;95.00;;;;;;5032291;28;20734;-69
2023/06/22 09:49:59;;;;;;;2.67;2.47;;;28.30;94.40;;;;;;5032050;28;20402;-68
2023/06/22 09:52:25;;;;;;;5.23;3.50;;;29.00;94.50;;;;;;5032296;28;20202;-67
2023/06/22 09:54:50;;;;;;;3.17;2.93;;;29.30;94.30;;;;;;5031866;28;20414;-67
2023/06/22 09:57:16;;;;;;;3.40;2.50;;;29.30;94.40;;;;;;5031828;28;20206;-68
2023/06/22 09:59:42;;;;;;;2.77;2.17;;;29.40;94.00;;;;;;5032060;28;20462;-68
2023/06/22 10:02:08;;;;;;;4.47;3.47;;;29.20;94.50;;;;;;5032060;28;20273;-67
2023/06/22 10:04:35;;;;;;;2.70;2.50;;;29.20;94.20;;;;;;5032132;28;20645;-68
2023/06/22 10:07:02;;;;;;;3.20;2.90;;;28.90;94.40;;;;;;5026722;28;20426;-68
2023/06/22 10:09:27;;;;;;;3.03;2.73;;;29.20;94.20;;;;;;5031749;28;20955;-68
2023/06/22 10:11:53;;;;;;;4.60;2.80;;;29.10;94.30;;;;;;5031960;28;20453;-68
2023/06/22 10:14:18;;;;;;;3.20;3.00;;;29.20;94.80;;;;;;5031748;28;20163;-68
2023/06/22 10:16:44;;;;;;;3.20;2.70;;;29.30;94.80;;;;;;5031935;28;20662;-68
2023/06/22 10:19:10;;;;;;;4.10;3.00;;;29.50;94.10;;;;;;5031777;28;20716;-69
2023/06/22 10:21:35;;;;;;;3.20;2.90;;;29.30;95.30;;;;;;5031741;28;20191;-68
2023/06/22 10:24:08;;;;;;;3.83;2.83;;;29.40;94.80;;;;;;5043436;28;20167;-68
2023/06/22 10:26:34;;;;;;;5.20;3.10;;;29.30;94.00;;;;;;5031708;28;20257;-68
2023/06/22 10:29:01;;;;;;;3.73;2.30;;;29.40;94.10;;;;;;5025647;28;20402;-68
2023/06/22 10:31:27;;;;;;;4.33;3.40;;;29.10;94.40;;;;;;5031426;28;20415;-69
2023/06/22 10:33:53;;;;;;;3.20;2.90;;;28.90;95.00;;;;;;5031494;28;20502;-69
2023/06/22 10:36:19;;;;;;;5.10;3.20;;;29.10;94.80;;;;;;5031413;28;20171;-68
2023/06/22 10:38:46;;;;;;;8.10;3.43;;;29.10;95.20;;;;;;5068172;22;20482;-70
2023/06/22 10:41:12;;;;;;;3.20;3.00;;;29.10;95.10;;;;;;5030153;28;20187;-70
2023/06/22 10:43:38;;;;;;;2.50;2.30;;;29.50;95.30;;;;;;5030071;28;20484;-69
2023/06/22 10:46:04;;;;;;;3.50;3.20;;;29.70;94.40;;;;;;5030043;28;20243;-69
2023/06/22 10:48:29;;;;;;;4.20;3.90;;;29.40;95.00;;;;;;5030071;28;20230;-69
2023/06/22 10:50:55;;;;;;;3.70;3.40;;;29.20;95.00;;;;;;5024551;28;20278;-69
2023/06/22 10:53:21;;;;;;;3.73;3.43;;;29.20;95.00;;;;;;5026894;28;20175;-70
2023/06/22 10:55:47;;;;;;;3.77;3.47;;;28.90;95.00;;;;;;5029515;28;20629;-70
2023/06/22 10:58:12;;;;;;;3.20;3.00;;;28.50;96.40;;;;;;5026117;28;20488;-70
2023/06/22 11:00:38;;;;;;;4.83;3.70;;;28.60;96.40;;;;;;5028424;28;20410;-70
2023/06/22 11:03:04;;;;;;;3.70;3.40;;;28.30;95.80;;;;;;5025045;28;20203;-70
2023/06/22 11:05:29;;;;;;;4.83;3.30;;;28.40;96.30;;;;;;5027301;28;20179;-70
2023/06/22 11:07:55;;;;;;;5.80;3.50;;;28.40;96.20;;;;;;5029626;28;20214;-70
2023/06/22 11:10:20;;;;;;;3.70;3.40;;;28.40;96.20;;;;;;5026715;28;20214;-70
2023/06/22 11:12:46;;;;;;;2.93;2.73;;;28.60;96.60;;;;;;5028910;28;20190;-69
2023/06/22 11:15:12;;;;;;;3.50;3.20;;;28.60;95.90;;;;;;5025430;28;20654;-70
2023/06/22 11:17:37;;;;;;;3.57;3.30;;;28.40;95.90;;;;;;5027457;28;20731;-70
2023/06/22 11:20:10;;;;;;;5.00;3.30;;;28.30;96.50;;;;;;5024873;28;20641;-70
2023/06/22 11:22:39;;;;;;;3.63;3.33;;;28.30;96.30;;;;;;5026549;28;20684;-70
2023/06/22 11:25:05;;;;;;;3.87;3.57;;;28.10;97.10;;;;;;5022693;28;20432;-71
2023/06/22 11:27:31;;;;;;;4.03;2.73;;;28.20;96.20;;;;;;5026057;28;20402;-70
2023/06/22 11:29:56;;;;;;;3.30;3.00;;;28.40;96.30;;;;;;5028180;28;20488;-70
2023/06/22 11:32:23;;;;;;;3.67;3.37;;;28.60;95.20;;;;;;5029896;28;20254;-70
2023/06/22 11:34:48;;;;;;;6.03;3.80;;;28.80;95.40;;;;;;5027577;28;20175;-71
2023/06/22 11:37:15;;;;;;;3.37;3.07;;;28.90;94.70;;;;;;5024189;28;20549;-70
2023/06/22 11:39:41;;;;;;;3.10;2.80;;;28.90;95.30;;;;;;5026055;28;20209;-70
2023/06/22 11:42:07;;;;;;;4.73;4.17;;;29.00;94.80;;;;;;5030847;28;20545;-70
2023/06/22 11:44:32;;;;;;;3.43;3.13;;;28.90;95.90;;;;;;5028037;28;20501;-70
2023/06/22 11:47:00;;;;;;;4.57;4.07;;;28.80;94.70;;;;;;5031497;28;20192;-70
2023/06/22 11:49:26;;;;;;;3.67;3.33;;;28.60;95.20;;;;;;5033686;28;20191;-70
2023/06/22 11:51:52;;;;;;;3.93;3.20;;;28.80;94.90;;;;;;5029024;28;20410;-70
2023/06/22 11:54:18;;;;;;;3.93;3.53;;;28.80;95.00;;;;;;5033315;28;20840;-70
2023/06/22 11:56:43;;;;;;;4.37;3.10;;;28.80;94.50;;;;;;5027999;28;20183;-70
2023/06/22 11:59:09;;;;;;;4.77;3.83;;;28.60;94.70;;;;;;5033128;28;20270;-71
2023/06/22 12:01:35;;;;;;;3.60;3.30;;;28.30;94.60;;;;;;5028059;28;20198;-70
2023/06/22 12:04:00;;;;;;;3.90;3.60;;;28.40;94.70;;;;;;5031013;28;20299;-69
2023/06/22 12:06:26;;;;;;;6.83;3.10;;;28.70;95.00;;;;;;5034189;28;20205;-71
2023/06/22 12:08:51;;;;;;;3.83;3.43;;;28.80;94.30;;;;;;5029194;28;20286;-69
2023/06/22 12:11:17;;;;;;;3.90;3.50;;;28.70;94.90;;;;;;5033613;28;20630;-69
2023/06/22 12:13:43;;;;;;;3.60;3.30;;;28.60;94.60;;;;;;5028257;28;20540;-71
2023/06/22 12:16:08;;;;;;;4.30;3.60;;;28.50;94.30;;;;;;5032621;28;20171;-70
2023/06/22 12:18:34;;;;;;;3.10;2.90;;;28.70;94.40;;;;;;5027231;28;20658;-70
2023/06/22 12:21:02;;;;;;;5.67;4.37;;;28.90;94.40;;;;;;5031418;28;20191;-70
2023/06/22 12:23:27;;;;;;;4.33;3.27;;;29.00;94.20;;;;;;5033301;28;20218;-70
2023/06/22 12:25:53;;;;;;;3.63;3.33;;;29.30;93.80;;;;;;5030389;28;20476;-70
2023/06/22 12:28:19;;;;;;;3.40;3.10;;;29.30;93.80;;;;;;5034444;28;20187;-70
2023/06/22 12:30:44;;;;;;;4.13;3.83;;;29.30;93.80;;;;;;5027224;28;20652;-70
2023/06/22 12:33:10;;;;;;;3.53;3.23;;;29.30;93.70;;;;;;5032135;28;20214;-69
2023/06/22 12:35:35;;;;;;;3.60;3.07;;;29.30;93.90;;;;;;5027474;28;20244;-70
2023/06/22 12:38:02;;;;;;;3.80;3.27;;;29.20;93.80;;;;;;5029592;28;20605;-70